<?xml version="1.0" encoding="UTF-8" standalone="no" ?><gpx xmlns="http://www.topografix.com/GPX/1/1" xmlns:gpxx="http://www.garmin.com/xmlschemas/GpxExtensions/v3" xmlns:wptx1="http://www.garmin.com/xmlschemas/WaypointExtension/v1" xmlns:gpxtpx="http://www.garmin.com/xmlschemas/TrackPointExtension/v1" creator="GuideVTT.com" version="1.1" xmlns:xsi="http://www.w3.org/2001/XMLSchema-instance" xsi:schemaLocation="http://www.topografix.com/GPX/1/1 http://www.topografix.com/GPX/1/1/gpx.xsd http://www.garmin.com/xmlschemas/GpxExtensions/v3 http://www8.garmin.com/xmlschemas/GpxExtensionsv3.xsd http://www.garmin.com/xmlschemas/WaypointExtension/v1 http://www8.garmin.com/xmlschemas/WaypointExtensionv1.xsd http://www.garmin.com/xmlschemas/TrackPointExtension/v1 http://www.garmin.com/xmlschemas/TrackPointExtensionv1.xsd">
<metadata><link href="http://www.garmin.com"><text>Garmin International</text></link><time>2013-06-22T15:13:50Z</time></metadata>
<trk><name>givrine.gpx</name><extensions><gpxx:TrackExtension><gpxx:DisplayColor>Cyan</gpxx:DisplayColor></gpxx:TrackExtension></extensions><trkseg>
<trkpt lat="46.45435000" lon="6.11210000"><ele>1210</ele><time>2005-06-16T13:39:40Z</time></trkpt>
<trkpt lat="46.45458330" lon="6.11223330"><ele>1211</ele><time>2005-06-16T13:40:11Z</time></trkpt>
<trkpt lat="46.45491670" lon="6.11080000"><ele>1217</ele><time>2005-06-16T13:41:15Z</time></trkpt>
<trkpt lat="46.45511670" lon="6.11036670"><ele>1220</ele><time>2005-06-16T13:41:36Z</time></trkpt>
<trkpt lat="46.45526670" lon="6.11041670"><ele>1220</ele><time>2005-06-16T13:41:44Z</time></trkpt>
<trkpt lat="46.45573330" lon="6.11251670"><ele>1233</ele><time>2005-06-16T13:43:07Z</time></trkpt>
<trkpt lat="46.45668330" lon="6.11313330"><ele>1235</ele><time>2005-06-16T13:44:04Z</time></trkpt>
<trkpt lat="46.45705000" lon="6.11396670"><ele>1238</ele><time>2005-06-16T13:44:39Z</time></trkpt>
<trkpt lat="46.45685000" lon="6.11493330"><ele>1240</ele><time>2005-06-16T13:45:03Z</time></trkpt>
<trkpt lat="46.45716670" lon="6.11658330"><ele>1254</ele><time>2005-06-16T13:46:08Z</time></trkpt>
<trkpt lat="46.45641670" lon="6.11711670"><ele>1264</ele><time>2005-06-16T13:46:30Z</time></trkpt>
<trkpt lat="46.45610000" lon="6.11808330"><ele>1262</ele><time>2005-06-16T13:47:11Z</time></trkpt>
<trkpt lat="46.45610000" lon="6.11856670"><ele>1263</ele><time>2005-06-16T13:47:30Z</time></trkpt>
<trkpt lat="46.45640000" lon="6.11960000"><ele>1267</ele><time>2005-06-16T13:48:11Z</time></trkpt>
<trkpt lat="46.45626670" lon="6.12045000"><ele>1271</ele><time>2005-06-16T13:48:42Z</time></trkpt>
<trkpt lat="46.45653330" lon="6.12118330"><ele>1274</ele><time>2005-06-16T13:49:07Z</time></trkpt>
<trkpt lat="46.45615000" lon="6.12246670"><ele>1279</ele><time>2005-06-16T13:50:05Z</time></trkpt>
<trkpt lat="46.45608330" lon="6.12433330"><ele>1287</ele><time>2005-06-16T13:51:03Z</time></trkpt>
<trkpt lat="46.45621670" lon="6.12508330"><ele>1288</ele><time>2005-06-16T13:51:20Z</time></trkpt>
<trkpt lat="46.45771670" lon="6.12768330"><ele>1293</ele><time>2005-06-16T13:52:44Z</time></trkpt>
<trkpt lat="46.45863330" lon="6.12803330"><ele>1293</ele><time>2005-06-16T13:53:23Z</time></trkpt>
<trkpt lat="46.45885000" lon="6.12828330"><ele>1294</ele><time>2005-06-16T13:53:32Z</time></trkpt>
<trkpt lat="46.45898330" lon="6.12940000"><ele>1294</ele><time>2005-06-16T13:53:57Z</time></trkpt>
<trkpt lat="46.45988330" lon="6.13120000"><ele>1295</ele><time>2005-06-16T13:54:26Z</time></trkpt>
<trkpt lat="46.46046670" lon="6.13185000"><ele>1294</ele><time>2005-06-16T13:54:39Z</time></trkpt>
<trkpt lat="46.46023330" lon="6.13255000"><ele>1293</ele><time>2005-06-16T13:54:49Z</time></trkpt>
<trkpt lat="46.46040000" lon="6.13408330"><ele>1292</ele><time>2005-06-16T13:55:08Z</time></trkpt>
<trkpt lat="46.46028330" lon="6.13476670"><ele>1290</ele><time>2005-06-16T13:55:20Z</time></trkpt>
<trkpt lat="46.45830000" lon="6.13628330"><ele>1289</ele><time>2005-06-16T13:56:05Z</time></trkpt>
<trkpt lat="46.45768330" lon="6.13766670"><ele>1288</ele><time>2005-06-16T13:56:26Z</time></trkpt>
<trkpt lat="46.45810000" lon="6.13868330"><ele>1287</ele><time>2005-06-16T13:56:32Z</time></trkpt>
<trkpt lat="46.45850000" lon="6.13896670"><ele>1271</ele><time>2005-06-16T13:57:44Z</time></trkpt>
<trkpt lat="46.45928330" lon="6.14020000"><ele>1271</ele><time>2005-06-16T13:58:52Z</time></trkpt>
<trkpt lat="46.45996670" lon="6.14160000"><ele>1277</ele><time>2005-06-16T13:59:50Z</time></trkpt>
<trkpt lat="46.46015000" lon="6.14203330"><ele>1279</ele><time>2005-06-16T14:00:10Z</time></trkpt>
<trkpt lat="46.46026670" lon="6.14311670"><ele>1291</ele><time>2005-06-16T14:00:46Z</time></trkpt>
<trkpt lat="46.46050000" lon="6.14380000"><ele>1295</ele><time>2005-06-16T14:01:14Z</time></trkpt>
<trkpt lat="46.46080000" lon="6.14405000"><ele>1297</ele><time>2005-06-16T14:01:32Z</time></trkpt>
<trkpt lat="46.46101670" lon="6.14443330"><ele>1298</ele><time>2005-06-16T14:01:48Z</time></trkpt>
<trkpt lat="46.46138330" lon="6.14598330"><ele>1315</ele><time>2005-06-16T14:02:36Z</time></trkpt>
<trkpt lat="46.46250000" lon="6.14785000"><ele>1322</ele><time>2005-06-16T14:04:30Z</time></trkpt>
<trkpt lat="46.46395000" lon="6.14958330"><ele>1324</ele><time>2005-06-16T14:05:14Z</time></trkpt>
<trkpt lat="46.46475000" lon="6.14938330"><ele>1322</ele><time>2005-06-16T14:05:39Z</time></trkpt>
<trkpt lat="46.46491670" lon="6.14986670"><ele>1322</ele><time>2005-06-16T14:06:38Z</time></trkpt>
<trkpt lat="46.46608330" lon="6.14983330"><ele>1320</ele><time>2005-06-16T14:07:05Z</time></trkpt>
<trkpt lat="46.46706670" lon="6.15025000"><ele>1320</ele><time>2005-06-16T14:07:24Z</time></trkpt>
<trkpt lat="46.46775000" lon="6.15076670"><ele>1320</ele><time>2005-06-16T14:07:38Z</time></trkpt>
<trkpt lat="46.46791670" lon="6.15186670"><ele>1320</ele><time>2005-06-16T14:07:43Z</time></trkpt>
<trkpt lat="46.46825000" lon="6.15238330"><ele>1321</ele><time>2005-06-16T14:07:53Z</time></trkpt>
<trkpt lat="46.46860000" lon="6.15268330"><ele>1320</ele><time>2005-06-16T14:08:02Z</time></trkpt>
<trkpt lat="46.46928330" lon="6.15240000"><ele>1318</ele><time>2005-06-16T14:08:16Z</time></trkpt>
<trkpt lat="46.47096670" lon="6.15336670"><ele>1317</ele><time>2005-06-16T14:08:53Z</time></trkpt>
<trkpt lat="46.47206670" lon="6.15420000"><ele>1315</ele><time>2005-06-16T14:09:15Z</time></trkpt>
<trkpt lat="46.47298330" lon="6.15531670"><ele>1312</ele><time>2005-06-16T14:09:34Z</time></trkpt>
<trkpt lat="46.47388330" lon="6.15603330"><ele>1304</ele><time>2005-06-16T14:09:48Z</time></trkpt>
<trkpt lat="46.47453330" lon="6.15673330"><ele>1302</ele><time>2005-06-16T14:10:00Z</time></trkpt>
<trkpt lat="46.47453330" lon="6.15695000"><ele>1300</ele><time>2005-06-16T14:10:08Z</time></trkpt>
<trkpt lat="46.47495000" lon="6.15715000"><ele>1280</ele><time>2005-06-16T14:11:08Z</time></trkpt>
<trkpt lat="46.47510000" lon="6.15748330"><ele>1277</ele><time>2005-06-16T14:11:21Z</time></trkpt>
<trkpt lat="46.47505000" lon="6.15838330"><ele>1275</ele><time>2005-06-16T14:11:50Z</time></trkpt>
<trkpt lat="46.47536670" lon="6.15980000"><ele>1272</ele><time>2005-06-16T14:12:20Z</time></trkpt>
<trkpt lat="46.47476670" lon="6.16196670"><ele>1272</ele><time>2005-06-16T14:12:55Z</time></trkpt>
<trkpt lat="46.47543330" lon="6.16270000"><ele>1272</ele><time>2005-06-16T14:13:10Z</time></trkpt>
<trkpt lat="46.47615000" lon="6.16301670"><ele>1272</ele><time>2005-06-16T14:13:26Z</time></trkpt>
<trkpt lat="46.47743330" lon="6.16166670"><ele>1272</ele><time>2005-06-16T14:13:43Z</time></trkpt>
<trkpt lat="46.47775000" lon="6.16160000"><ele>1270</ele><time>2005-06-16T14:13:51Z</time></trkpt>
<trkpt lat="46.47888330" lon="6.16283330"><ele>1271</ele><time>2005-06-16T14:14:20Z</time></trkpt>
<trkpt lat="46.47966670" lon="6.16395000"><ele>1270</ele><time>2005-06-16T14:14:39Z</time></trkpt>
<trkpt lat="46.47991670" lon="6.16506670"><ele>1269</ele><time>2005-06-16T14:14:53Z</time></trkpt>
<trkpt lat="46.47988330" lon="6.16546670"><ele>1258</ele><time>2005-06-16T14:15:20Z</time></trkpt>
<trkpt lat="46.48006670" lon="6.16573330"><ele>1240</ele><time>2005-06-16T14:17:08Z</time></trkpt>
<trkpt lat="46.48013330" lon="6.16630000"><ele>1241</ele><time>2005-06-16T14:18:27Z</time></trkpt>
<trkpt lat="46.48011670" lon="6.16620000"><ele>1240</ele><time>2005-06-16T14:18:35Z</time></trkpt>
<trkpt lat="46.48035000" lon="6.16608330"><ele>1242</ele><time>2005-06-16T14:18:54Z</time></trkpt>
<trkpt lat="46.48048330" lon="6.16548330"><ele>1240</ele><time>2005-06-16T14:19:27Z</time></trkpt>
<trkpt lat="46.48111670" lon="6.16485000"><ele>1243</ele><time>2005-06-16T14:20:13Z</time></trkpt>
<trkpt lat="46.48081670" lon="6.16336670"><ele>1251</ele><time>2005-06-16T14:21:11Z</time></trkpt>
<trkpt lat="46.48078330" lon="6.16263330"><ele>1262</ele><time>2005-06-16T14:22:08Z</time></trkpt>
<trkpt lat="46.48095000" lon="6.16218330"><ele>1264</ele><time>2005-06-16T14:22:22Z</time></trkpt>
<trkpt lat="46.48138330" lon="6.16200000"><ele>1267</ele><time>2005-06-16T14:22:36Z</time></trkpt>
<trkpt lat="46.48196670" lon="6.16210000"><ele>1269</ele><time>2005-06-16T14:22:51Z</time></trkpt>
<trkpt lat="46.48316670" lon="6.16268330"><ele>1272</ele><time>2005-06-16T14:23:15Z</time></trkpt>
<trkpt lat="46.48415000" lon="6.16235000"><ele>1277</ele><time>2005-06-16T14:23:53Z</time></trkpt>
<trkpt lat="46.48566670" lon="6.16350000"><ele>1289</ele><time>2005-06-16T14:25:01Z</time></trkpt>
<trkpt lat="46.48665000" lon="6.16336670"><ele>1292</ele><time>2005-06-16T14:25:43Z</time></trkpt>
<trkpt lat="46.48783330" lon="6.16398330"><ele>1299</ele><time>2005-06-16T14:26:33Z</time></trkpt>
<trkpt lat="46.48801670" lon="6.16358330"><ele>1299</ele><time>2005-06-16T14:27:53Z</time></trkpt>
<trkpt lat="46.48828330" lon="6.16341670"><ele>1297</ele><time>2005-06-16T14:28:02Z</time></trkpt>
<trkpt lat="46.48871670" lon="6.16361670"><ele>1294</ele><time>2005-06-16T14:28:11Z</time></trkpt>
<trkpt lat="46.48888330" lon="6.16338330"><ele>1292</ele><time>2005-06-16T14:28:17Z</time></trkpt>
<trkpt lat="46.48888330" lon="6.16231670"><ele>1290</ele><time>2005-06-16T14:28:35Z</time></trkpt>
<trkpt lat="46.48981670" lon="6.16151670"><ele>1286</ele><time>2005-06-16T14:28:59Z</time></trkpt>
<trkpt lat="46.49045000" lon="6.15953330"><ele>1286</ele><time>2005-06-16T14:30:19Z</time></trkpt>
<trkpt lat="46.49113330" lon="6.15906670"><ele>1288</ele><time>2005-06-16T14:30:45Z</time></trkpt>
<trkpt lat="46.49273330" lon="6.15931670"><ele>1292</ele><time>2005-06-16T14:31:47Z</time></trkpt>
<trkpt lat="46.49363330" lon="6.15835000"><ele>1301</ele><time>2005-06-16T14:32:54Z</time></trkpt>
<trkpt lat="46.49410000" lon="6.15828330"><ele>1308</ele><time>2005-06-16T14:34:04Z</time></trkpt>
<trkpt lat="46.49445000" lon="6.15846670"><ele>1308</ele><time>2005-06-16T14:34:19Z</time></trkpt>
<trkpt lat="46.49478330" lon="6.15925000"><ele>1301</ele><time>2005-06-16T14:34:58Z</time></trkpt>
<trkpt lat="46.49508330" lon="6.16158330"><ele>1283</ele><time>2005-06-16T14:35:51Z</time></trkpt>
<trkpt lat="46.49556670" lon="6.16356670"><ele>1273</ele><time>2005-06-16T14:37:04Z</time></trkpt>
<trkpt lat="46.49543330" lon="6.16376670"><ele>1275</ele><time>2005-06-16T14:37:17Z</time></trkpt>
<trkpt lat="46.49583330" lon="6.16440000"><ele>1273</ele><time>2005-06-16T14:37:35Z</time></trkpt>
<trkpt lat="46.49721670" lon="6.16575000"><ele>1272</ele><time>2005-06-16T14:38:19Z</time></trkpt>
<trkpt lat="46.49761670" lon="6.16785000"><ele>1269</ele><time>2005-06-16T14:39:00Z</time></trkpt>
<trkpt lat="46.49861670" lon="6.17013330"><ele>1269</ele><time>2005-06-16T14:40:09Z</time></trkpt>
<trkpt lat="46.49873330" lon="6.17090000"><ele>1269</ele><time>2005-06-16T14:40:22Z</time></trkpt>
<trkpt lat="46.49865000" lon="6.17241670"><ele>1271</ele><time>2005-06-16T14:40:44Z</time></trkpt>
<trkpt lat="46.49886670" lon="6.17271670"><ele>1271</ele><time>2005-06-16T14:40:50Z</time></trkpt>
<trkpt lat="46.50015000" lon="6.17336670"><ele>1271</ele><time>2005-06-16T14:41:21Z</time></trkpt>
<trkpt lat="46.50028330" lon="6.17381670"><ele>1273</ele><time>2005-06-16T14:41:27Z</time></trkpt>
<trkpt lat="46.50011670" lon="6.17495000"><ele>1275</ele><time>2005-06-16T14:41:41Z</time></trkpt>
<trkpt lat="46.50051670" lon="6.17605000"><ele>1273</ele><time>2005-06-16T14:41:53Z</time></trkpt>
<trkpt lat="46.50156670" lon="6.17735000"><ele>1271</ele><time>2005-06-16T14:42:14Z</time></trkpt>
<trkpt lat="46.50150000" lon="6.17785000"><ele>1266</ele><time>2005-06-16T14:43:30Z</time></trkpt>
<trkpt lat="46.50231670" lon="6.17828330"><ele>1266</ele><time>2005-06-16T14:44:03Z</time></trkpt>
<trkpt lat="46.50350000" lon="6.18008330"><ele>1268</ele><time>2005-06-16T14:44:41Z</time></trkpt>
<trkpt lat="46.50406670" lon="6.18063330"><ele>1269</ele><time>2005-06-16T14:44:57Z</time></trkpt>
<trkpt lat="46.50470000" lon="6.18195000"><ele>1269</ele><time>2005-06-16T14:45:22Z</time></trkpt>
<trkpt lat="46.50813330" lon="6.18578330"><ele>1272</ele><time>2005-06-16T14:46:42Z</time></trkpt>
<trkpt lat="46.50900000" lon="6.18708330"><ele>1278</ele><time>2005-06-16T14:47:26Z</time></trkpt>
<trkpt lat="46.51011670" lon="6.18816670"><ele>1277</ele><time>2005-06-16T14:49:53Z</time></trkpt>
<trkpt lat="46.51088330" lon="6.18933330"><ele>1274</ele><time>2005-06-16T14:50:13Z</time></trkpt>
<trkpt lat="46.51273330" lon="6.19165000"><ele>1278</ele><time>2005-06-16T14:51:08Z</time></trkpt>
<trkpt lat="46.51608330" lon="6.19428330"><ele>1277</ele><time>2005-06-16T14:52:21Z</time></trkpt>
<trkpt lat="46.51730000" lon="6.19598330"><ele>1283</ele><time>2005-06-16T14:53:09Z</time></trkpt>
<trkpt lat="46.51743330" lon="6.19696670"><ele>1286</ele><time>2005-06-16T14:53:34Z</time></trkpt>
<trkpt lat="46.51770000" lon="6.19763330"><ele>1291</ele><time>2005-06-16T14:53:50Z</time></trkpt>
<trkpt lat="46.51895000" lon="6.19990000"><ele>1297</ele><time>2005-06-16T14:54:42Z</time></trkpt>
<trkpt lat="46.51960000" lon="6.20076670"><ele>1296</ele><time>2005-06-16T14:55:07Z</time></trkpt>
<trkpt lat="46.52020000" lon="6.20126670"><ele>1298</ele><time>2005-06-16T14:55:26Z</time></trkpt>
<trkpt lat="46.52110000" lon="6.20238330"><ele>1302</ele><time>2005-06-16T14:55:59Z</time></trkpt>
<trkpt lat="46.52148330" lon="6.20420000"><ele>1306</ele><time>2005-06-16T14:56:53Z</time></trkpt>
<trkpt lat="46.52223330" lon="6.20466670"><ele>1308</ele><time>2005-06-16T14:57:24Z</time></trkpt>
<trkpt lat="46.52278330" lon="6.20553330"><ele>1313</ele><time>2005-06-16T14:57:53Z</time></trkpt>
<trkpt lat="46.52433330" lon="6.20635000"><ele>1321</ele><time>2005-06-16T14:59:10Z</time></trkpt>
<trkpt lat="46.52566670" lon="6.20800000"><ele>1332</ele><time>2005-06-16T15:00:03Z</time></trkpt>
<trkpt lat="46.52663330" lon="6.20876670"><ele>1336</ele><time>2005-06-16T15:00:29Z</time></trkpt>
<trkpt lat="46.52810000" lon="6.21045000"><ele>1340</ele><time>2005-06-16T15:01:10Z</time></trkpt>
<trkpt lat="46.52885000" lon="6.21091670"><ele>1339</ele><time>2005-06-16T15:01:29Z</time></trkpt>
<trkpt lat="46.52926670" lon="6.21166670"><ele>1338</ele><time>2005-06-16T15:01:42Z</time></trkpt>
<trkpt lat="46.52986670" lon="6.21233330"><ele>1336</ele><time>2005-06-16T15:01:55Z</time></trkpt>
<trkpt lat="46.53068330" lon="6.21370000"><ele>1333</ele><time>2005-06-16T15:02:16Z</time></trkpt>
<trkpt lat="46.53088330" lon="6.21541670"><ele>1326</ele><time>2005-06-16T15:02:38Z</time></trkpt>
<trkpt lat="46.53165000" lon="6.21681670"><ele>1318</ele><time>2005-06-16T15:04:03Z</time></trkpt>
<trkpt lat="46.53231670" lon="6.21711670"><ele>1316</ele><time>2005-06-16T15:04:14Z</time></trkpt>
<trkpt lat="46.53290000" lon="6.21773330"><ele>1313</ele><time>2005-06-16T15:04:26Z</time></trkpt>
<trkpt lat="46.53321670" lon="6.21838330"><ele>1311</ele><time>2005-06-16T15:04:35Z</time></trkpt>
<trkpt lat="46.53460000" lon="6.21913330"><ele>1308</ele><time>2005-06-16T15:04:54Z</time></trkpt>
<trkpt lat="46.53596670" lon="6.22080000"><ele>1311</ele><time>2005-06-16T15:05:23Z</time></trkpt>
<trkpt lat="46.53680000" lon="6.22231670"><ele>1312</ele><time>2005-06-16T15:05:54Z</time></trkpt>
<trkpt lat="46.53748330" lon="6.22325000"><ele>1314</ele><time>2005-06-16T15:06:16Z</time></trkpt>
<trkpt lat="46.53946670" lon="6.22408330"><ele>1315</ele><time>2005-06-16T15:07:02Z</time></trkpt>
<trkpt lat="46.54090000" lon="6.22510000"><ele>1316</ele><time>2005-06-16T15:07:26Z</time></trkpt>
<trkpt lat="46.54350000" lon="6.22861670"><ele>1317</ele><time>2005-06-16T15:08:20Z</time></trkpt>
<trkpt lat="46.54471670" lon="6.22986670"><ele>1320</ele><time>2005-06-16T15:08:54Z</time></trkpt>
<trkpt lat="46.54516670" lon="6.23056670"><ele>1321</ele><time>2005-06-16T15:09:11Z</time></trkpt>
<trkpt lat="46.54610000" lon="6.23165000"><ele>1323</ele><time>2005-06-16T15:09:38Z</time></trkpt>
<trkpt lat="46.54748330" lon="6.23480000"><ele>1320</ele><time>2005-06-16T15:10:25Z</time></trkpt>
<trkpt lat="46.54915000" lon="6.23691670"><ele>1320</ele><time>2005-06-16T15:11:18Z</time></trkpt>
<trkpt lat="46.55111670" lon="6.23918330"><ele>1329</ele><time>2005-06-16T15:12:40Z</time></trkpt>
<trkpt lat="46.55066670" lon="6.23785000"><ele>1324</ele><time>2005-06-16T15:16:08Z</time></trkpt>
<trkpt lat="46.55075000" lon="6.23765000"><ele>1323</ele><time>2005-06-16T15:16:13Z</time></trkpt>
<trkpt lat="46.55185000" lon="6.23866670"><ele>1318</ele><time>2005-06-16T15:16:49Z</time></trkpt>
<trkpt lat="46.55251670" lon="6.23868330"><ele>1322</ele><time>2005-06-16T15:17:07Z</time></trkpt>
<trkpt lat="46.55261670" lon="6.23841670"><ele>1323</ele><time>2005-06-16T15:17:18Z</time></trkpt>
<trkpt lat="46.55245000" lon="6.23735000"><ele>1332</ele><time>2005-06-16T15:17:55Z</time></trkpt>
<trkpt lat="46.55251670" lon="6.23680000"><ele>1331</ele><time>2005-06-16T15:18:12Z</time></trkpt>
<trkpt lat="46.55201670" lon="6.23591670"><ele>1331</ele><time>2005-06-16T15:18:32Z</time></trkpt>
<trkpt lat="46.55200000" lon="6.23460000"><ele>1333</ele><time>2005-06-16T15:19:08Z</time></trkpt>
<trkpt lat="46.55165000" lon="6.23375000"><ele>1333</ele><time>2005-06-16T15:19:50Z</time></trkpt>
<trkpt lat="46.55201670" lon="6.23303330"><ele>1336</ele><time>2005-06-16T15:20:30Z</time></trkpt>
<trkpt lat="46.55291670" lon="6.23213330"><ele>1332</ele><time>2005-06-16T15:20:55Z</time></trkpt>
<trkpt lat="46.55298330" lon="6.23086670"><ele>1325</ele><time>2005-06-16T15:21:13Z</time></trkpt>
<trkpt lat="46.55276670" lon="6.23038330"><ele>1324</ele><time>2005-06-16T15:21:19Z</time></trkpt>
<trkpt lat="46.55266670" lon="6.22911670"><ele>1319</ele><time>2005-06-16T15:21:35Z</time></trkpt>
<trkpt lat="46.55276670" lon="6.22858330"><ele>1309</ele><time>2005-06-16T15:22:01Z</time></trkpt>
<trkpt lat="46.55296670" lon="6.22808330"><ele>1308</ele><time>2005-06-16T15:22:21Z</time></trkpt>
<trkpt lat="46.55358330" lon="6.22770000"><ele>1307</ele><time>2005-06-16T15:22:41Z</time></trkpt>
<trkpt lat="46.55393330" lon="6.22698330"><ele>1307</ele><time>2005-06-16T15:22:55Z</time></trkpt>
<trkpt lat="46.55433330" lon="6.22665000"><ele>1306</ele><time>2005-06-16T15:23:06Z</time></trkpt>
<trkpt lat="46.55525000" lon="6.22660000"><ele>1304</ele><time>2005-06-16T15:23:27Z</time></trkpt>
<trkpt lat="46.55610000" lon="6.22625000"><ele>1305</ele><time>2005-06-16T15:23:49Z</time></trkpt>
<trkpt lat="46.55688330" lon="6.22443330"><ele>1318</ele><time>2005-06-16T15:35:08Z</time></trkpt>
<trkpt lat="46.55760000" lon="6.22146670"><ele>1329</ele><time>2005-06-16T15:39:34Z</time></trkpt>
<trkpt lat="46.55830000" lon="6.22015000"><ele>1336</ele><time>2005-06-16T15:40:57Z</time></trkpt>
<trkpt lat="46.55821670" lon="6.21933330"><ele>1336</ele><time>2005-06-16T15:41:21Z</time></trkpt>
<trkpt lat="46.55880000" lon="6.21846670"><ele>1335</ele><time>2005-06-16T15:41:44Z</time></trkpt>
<trkpt lat="46.55910000" lon="6.21718330"><ele>1335</ele><time>2005-06-16T15:42:09Z</time></trkpt>
<trkpt lat="46.56028330" lon="6.21443330"><ele>1333</ele><time>2005-06-16T15:42:47Z</time></trkpt>
<trkpt lat="46.56030000" lon="6.21411670"><ele>1332</ele><time>2005-06-16T15:42:50Z</time></trkpt>
<trkpt lat="46.56073330" lon="6.21345000"><ele>1327</ele><time>2005-06-16T15:43:00Z</time></trkpt>
<trkpt lat="46.56095000" lon="6.21285000"><ele>1322</ele><time>2005-06-16T15:43:11Z</time></trkpt>
<trkpt lat="46.56113330" lon="6.21145000"><ele>1316</ele><time>2005-06-16T15:43:39Z</time></trkpt>
<trkpt lat="46.56206670" lon="6.21003330"><ele>1313</ele><time>2005-06-16T15:44:10Z</time></trkpt>
<trkpt lat="46.56201670" lon="6.20933330"><ele>1311</ele><time>2005-06-16T15:44:20Z</time></trkpt>
<trkpt lat="46.56238330" lon="6.20788330"><ele>1311</ele><time>2005-06-16T15:45:30Z</time></trkpt>
<trkpt lat="46.56283330" lon="6.20776670"><ele>1309</ele><time>2005-06-16T15:45:36Z</time></trkpt>
<trkpt lat="46.56396670" lon="6.20813330"><ele>1297</ele><time>2005-06-16T15:45:56Z</time></trkpt>
<trkpt lat="46.56495000" lon="6.20791670"><ele>1287</ele><time>2005-06-16T15:46:10Z</time></trkpt>
<trkpt lat="46.56620000" lon="6.20845000"><ele>1277</ele><time>2005-06-16T15:46:26Z</time></trkpt>
<trkpt lat="46.56716670" lon="6.20825000"><ele>1274</ele><time>2005-06-16T15:46:40Z</time></trkpt>
<trkpt lat="46.56740000" lon="6.20843330"><ele>1271</ele><time>2005-06-16T15:46:45Z</time></trkpt>
<trkpt lat="46.56545000" lon="6.20590000"><ele>1271</ele><time>2005-06-16T15:47:44Z</time></trkpt>
<trkpt lat="46.56328330" lon="6.20395000"><ele>1271</ele><time>2005-06-16T15:48:58Z</time></trkpt>
<trkpt lat="46.56068330" lon="6.20120000"><ele>1270</ele><time>2005-06-16T15:49:54Z</time></trkpt>
<trkpt lat="46.55980000" lon="6.19966670"><ele>1272</ele><time>2005-06-16T15:50:16Z</time></trkpt>
<trkpt lat="46.55900000" lon="6.19873330"><ele>1278</ele><time>2005-06-16T15:50:39Z</time></trkpt>
<trkpt lat="46.55793330" lon="6.19840000"><ele>1278</ele><time>2005-06-16T15:51:06Z</time></trkpt>
<trkpt lat="46.55733330" lon="6.19853330"><ele>1279</ele><time>2005-06-16T15:51:22Z</time></trkpt>
<trkpt lat="46.55615000" lon="6.19815000"><ele>1283</ele><time>2005-06-16T15:52:00Z</time></trkpt>
<trkpt lat="46.55393330" lon="6.19870000"><ele>1304</ele><time>2005-06-16T15:53:32Z</time></trkpt>
<trkpt lat="46.55171670" lon="6.19686670"><ele>1314</ele><time>2005-06-16T15:54:51Z</time></trkpt>
<trkpt lat="46.55070000" lon="6.19566670"><ele>1320</ele><time>2005-06-16T15:55:26Z</time></trkpt>
<trkpt lat="46.54806670" lon="6.19188330"><ele>1330</ele><time>2005-06-16T15:57:03Z</time></trkpt>
<trkpt lat="46.54708330" lon="6.19111670"><ele>1345</ele><time>2005-06-16T15:57:48Z</time></trkpt>
<trkpt lat="46.54536670" lon="6.18940000"><ele>1354</ele><time>2005-06-16T15:59:17Z</time></trkpt>
<trkpt lat="46.54411670" lon="6.18790000"><ele>1364</ele><time>2005-06-16T16:00:23Z</time></trkpt>
<trkpt lat="46.54411670" lon="6.18770000"><ele>1366</ele><time>2005-06-16T16:01:34Z</time></trkpt>
<trkpt lat="46.54266670" lon="6.18546670"><ele>1387</ele><time>2005-06-16T16:03:22Z</time></trkpt>
<trkpt lat="46.53986670" lon="6.18271670"><ele>1407</ele><time>2005-06-16T16:05:34Z</time></trkpt>
<trkpt lat="46.53956670" lon="6.18271670"><ele>1408</ele><time>2005-06-16T16:05:42Z</time></trkpt>
<trkpt lat="46.53926670" lon="6.18233330"><ele>1409</ele><time>2005-06-16T16:05:52Z</time></trkpt>
<trkpt lat="46.53866670" lon="6.18235000"><ele>1411</ele><time>2005-06-16T16:06:09Z</time></trkpt>
<trkpt lat="46.53815000" lon="6.18178330"><ele>1418</ele><time>2005-06-16T16:06:47Z</time></trkpt>
<trkpt lat="46.53701670" lon="6.18105000"><ele>1428</ele><time>2005-06-16T16:10:28Z</time></trkpt>
<trkpt lat="46.53525000" lon="6.18133330"><ele>1436</ele><time>2005-06-16T16:11:34Z</time></trkpt>
<trkpt lat="46.53466670" lon="6.18070000"><ele>1437</ele><time>2005-06-16T16:12:02Z</time></trkpt>
<trkpt lat="46.53386670" lon="6.18111670"><ele>1447</ele><time>2005-06-16T16:14:06Z</time></trkpt>
<trkpt lat="46.53275000" lon="6.18040000"><ele>1463</ele><time>2005-06-16T16:15:02Z</time></trkpt>
<trkpt lat="46.53250000" lon="6.18076670"><ele>1465</ele><time>2005-06-16T16:15:14Z</time></trkpt>
<trkpt lat="46.53186670" lon="6.18105000"><ele>1465</ele><time>2005-06-16T16:15:39Z</time></trkpt>
<trkpt lat="46.53156670" lon="6.18163330"><ele>1465</ele><time>2005-06-16T16:15:52Z</time></trkpt>
<trkpt lat="46.53128330" lon="6.18160000"><ele>1464</ele><time>2005-06-16T16:16:03Z</time></trkpt>
<trkpt lat="46.53086670" lon="6.18141670"><ele>1479</ele><time>2005-06-16T16:16:35Z</time></trkpt>
<trkpt lat="46.52965000" lon="6.18026670"><ele>1487</ele><time>2005-06-16T16:18:01Z</time></trkpt>
<trkpt lat="46.52916670" lon="6.17958330"><ele>1487</ele><time>2005-06-16T16:18:26Z</time></trkpt>
<trkpt lat="46.52866670" lon="6.17855000"><ele>1485</ele><time>2005-06-16T16:18:51Z</time></trkpt>
<trkpt lat="46.52773330" lon="6.17753330"><ele>1490</ele><time>2005-06-16T16:19:25Z</time></trkpt>
<trkpt lat="46.52748330" lon="6.17673330"><ele>1489</ele><time>2005-06-16T16:19:38Z</time></trkpt>
<trkpt lat="46.52700000" lon="6.17600000"><ele>1489</ele><time>2005-06-16T16:19:51Z</time></trkpt>
<trkpt lat="46.52640000" lon="6.17470000"><ele>1495</ele><time>2005-06-16T16:21:14Z</time></trkpt>
<trkpt lat="46.52475000" lon="6.17316670"><ele>1502</ele><time>2005-06-16T16:22:42Z</time></trkpt>
<trkpt lat="46.52456670" lon="6.17231670"><ele>1519</ele><time>2005-06-16T16:23:53Z</time></trkpt>
<trkpt lat="46.52506670" lon="6.17135000"><ele>1517</ele><time>2005-06-16T16:24:10Z</time></trkpt>
<trkpt lat="46.52501670" lon="6.17100000"><ele>1515</ele><time>2005-06-16T16:24:21Z</time></trkpt>
<trkpt lat="46.52476670" lon="6.16981670"><ele>1509</ele><time>2005-06-16T16:24:44Z</time></trkpt>
<trkpt lat="46.52461670" lon="6.16950000"><ele>1507</ele><time>2005-06-16T16:24:49Z</time></trkpt>
<trkpt lat="46.52411670" lon="6.16896670"><ele>1506</ele><time>2005-06-16T16:24:59Z</time></trkpt>
<trkpt lat="46.52386670" lon="6.16826670"><ele>1503</ele><time>2005-06-16T16:25:08Z</time></trkpt>
<trkpt lat="46.52301670" lon="6.16810000"><ele>1497</ele><time>2005-06-16T16:25:21Z</time></trkpt>
<trkpt lat="46.52176670" lon="6.16615000"><ele>1489</ele><time>2005-06-16T16:25:45Z</time></trkpt>
<trkpt lat="46.52096670" lon="6.16650000"><ele>1487</ele><time>2005-06-16T16:25:56Z</time></trkpt>
<trkpt lat="46.52078330" lon="6.16636670"><ele>1488</ele><time>2005-06-16T16:25:59Z</time></trkpt>
<trkpt lat="46.51998330" lon="6.16466670"><ele>1484</ele><time>2005-06-16T16:26:18Z</time></trkpt>
<trkpt lat="46.51921670" lon="6.16375000"><ele>1483</ele><time>2005-06-16T16:26:40Z</time></trkpt>
<trkpt lat="46.51885000" lon="6.16308330"><ele>1482</ele><time>2005-06-16T16:26:57Z</time></trkpt>
<trkpt lat="46.51858330" lon="6.16290000"><ele>1478</ele><time>2005-06-16T16:27:07Z</time></trkpt>
<trkpt lat="46.51828330" lon="6.16211670"><ele>1475</ele><time>2005-06-16T16:27:26Z</time></trkpt>
<trkpt lat="46.51841670" lon="6.16141670"><ele>1473</ele><time>2005-06-16T16:27:44Z</time></trkpt>
<trkpt lat="46.51813330" lon="6.16010000"><ele>1475</ele><time>2005-06-16T16:28:34Z</time></trkpt>
<trkpt lat="46.51723330" lon="6.16001670"><ele>1480</ele><time>2005-06-16T16:29:19Z</time></trkpt>
<trkpt lat="46.51683330" lon="6.16066670"><ele>1480</ele><time>2005-06-16T16:29:53Z</time></trkpt>
<trkpt lat="46.51663330" lon="6.16048330"><ele>1482</ele><time>2005-06-16T16:30:06Z</time></trkpt>
<trkpt lat="46.51636670" lon="6.15866670"><ele>1489</ele><time>2005-06-16T16:31:19Z</time></trkpt>
<trkpt lat="46.51566670" lon="6.15768330"><ele>1491</ele><time>2005-06-16T16:31:55Z</time></trkpt>
<trkpt lat="46.51418330" lon="6.15655000"><ele>1501</ele><time>2005-06-16T16:33:14Z</time></trkpt>
<trkpt lat="46.51415000" lon="6.15570000"><ele>1501</ele><time>2005-06-16T16:33:28Z</time></trkpt>
<trkpt lat="46.51378330" lon="6.15463330"><ele>1503</ele><time>2005-06-16T16:33:41Z</time></trkpt>
<trkpt lat="46.51288330" lon="6.15426670"><ele>1501</ele><time>2005-06-16T16:33:55Z</time></trkpt>
<trkpt lat="46.51266670" lon="6.15450000"><ele>1500</ele><time>2005-06-16T16:34:00Z</time></trkpt>
<trkpt lat="46.51255000" lon="6.15493330"><ele>1499</ele><time>2005-06-16T16:34:05Z</time></trkpt>
<trkpt lat="46.51231670" lon="6.15493330"><ele>1499</ele><time>2005-06-16T16:34:09Z</time></trkpt>
<trkpt lat="46.51108330" lon="6.15473330"><ele>1500</ele><time>2005-06-16T16:34:27Z</time></trkpt>
<trkpt lat="46.51076670" lon="6.15433330"><ele>1499</ele><time>2005-06-16T16:34:33Z</time></trkpt>
<trkpt lat="46.51096670" lon="6.15398330"><ele>1499</ele><time>2005-06-16T16:34:38Z</time></trkpt>
<trkpt lat="46.51170000" lon="6.15403330"><ele>1499</ele><time>2005-06-16T16:34:48Z</time></trkpt>
<trkpt lat="46.51206670" lon="6.15203330"><ele>1499</ele><time>2005-06-16T16:35:09Z</time></trkpt>
<trkpt lat="46.51171670" lon="6.15175000"><ele>1498</ele><time>2005-06-16T16:35:14Z</time></trkpt>
<trkpt lat="46.51111670" lon="6.15178330"><ele>1496</ele><time>2005-06-16T16:35:22Z</time></trkpt>
<trkpt lat="46.51053330" lon="6.15231670"><ele>1495</ele><time>2005-06-16T16:35:31Z</time></trkpt>
<trkpt lat="46.51000000" lon="6.15345000"><ele>1493</ele><time>2005-06-16T16:35:44Z</time></trkpt>
<trkpt lat="46.50983330" lon="6.15353330"><ele>1493</ele><time>2005-06-16T16:35:47Z</time></trkpt>
<trkpt lat="46.50830000" lon="6.15215000"><ele>1492</ele><time>2005-06-16T16:36:08Z</time></trkpt>
<trkpt lat="46.50796670" lon="6.15225000"><ele>1491</ele><time>2005-06-16T16:36:14Z</time></trkpt>
<trkpt lat="46.50775000" lon="6.15261670"><ele>1489</ele><time>2005-06-16T16:36:25Z</time></trkpt>
<trkpt lat="46.50723330" lon="6.15296670"><ele>1475</ele><time>2005-06-16T16:36:52Z</time></trkpt>
<trkpt lat="46.50668330" lon="6.15268330"><ele>1469</ele><time>2005-06-16T16:37:18Z</time></trkpt>
<trkpt lat="46.50551670" lon="6.15328330"><ele>1472</ele><time>2005-06-16T16:38:15Z</time></trkpt>
<trkpt lat="46.50526670" lon="6.15326670"><ele>1473</ele><time>2005-06-16T16:38:28Z</time></trkpt>
<trkpt lat="46.50485000" lon="6.15275000"><ele>1478</ele><time>2005-06-16T16:38:55Z</time></trkpt>
<trkpt lat="46.50466670" lon="6.15266670"><ele>1479</ele><time>2005-06-16T16:39:05Z</time></trkpt>
<trkpt lat="46.50381670" lon="6.15281670"><ele>1482</ele><time>2005-06-16T16:40:43Z</time></trkpt>
<trkpt lat="46.50361670" lon="6.15223330"><ele>1478</ele><time>2005-06-16T16:41:39Z</time></trkpt>
<trkpt lat="46.50250000" lon="6.15033330"><ele>1471</ele><time>2005-06-16T16:42:25Z</time></trkpt>
<trkpt lat="46.50266670" lon="6.14923330"><ele>1479</ele><time>2005-06-16T16:44:18Z</time></trkpt>
<trkpt lat="46.50313330" lon="6.14770000"><ele>1487</ele><time>2005-06-16T16:45:46Z</time></trkpt>
<trkpt lat="46.50355000" lon="6.14323330"><ele>1511</ele><time>2005-06-16T16:50:40Z</time></trkpt>
<trkpt lat="46.50331670" lon="6.14301670"><ele>1516</ele><time>2005-06-16T16:51:40Z</time></trkpt>
<trkpt lat="46.50288330" lon="6.14323330"><ele>1515</ele><time>2005-06-16T16:52:56Z</time></trkpt>
<trkpt lat="46.50146670" lon="6.14300000"><ele>1525</ele><time>2005-06-16T16:54:22Z</time></trkpt>
<trkpt lat="46.50083330" lon="6.14075000"><ele>1518</ele><time>2005-06-16T16:55:26Z</time></trkpt>
<trkpt lat="46.50071670" lon="6.13980000"><ele>1515</ele><time>2005-06-16T16:55:39Z</time></trkpt>
<trkpt lat="46.49991670" lon="6.13753330"><ele>1514</ele><time>2005-06-16T16:56:18Z</time></trkpt>
<trkpt lat="46.49930000" lon="6.13693330"><ele>1509</ele><time>2005-06-16T16:56:34Z</time></trkpt>
<trkpt lat="46.50018330" lon="6.13836670"><ele>1535</ele><time>2005-06-16T16:57:27Z</time></trkpt>
<trkpt lat="46.49881670" lon="6.13575000"><ele>1511</ele><time>2005-06-16T16:57:37Z</time></trkpt>
<trkpt lat="46.49893330" lon="6.13575000"><ele>1504</ele><time>2005-06-16T16:57:51Z</time></trkpt>
<trkpt lat="46.49885000" lon="6.13520000"><ele>1497</ele><time>2005-06-16T16:58:09Z</time></trkpt>
<trkpt lat="46.49835000" lon="6.13468330"><ele>1495</ele><time>2005-06-16T16:58:22Z</time></trkpt>
<trkpt lat="46.49746670" lon="6.13398330"><ele>1486</ele><time>2005-06-16T16:58:49Z</time></trkpt>
<trkpt lat="46.49511670" lon="6.13380000"><ele>1482</ele><time>2005-06-16T17:00:06Z</time></trkpt>
<trkpt lat="46.49391670" lon="6.13313330"><ele>1475</ele><time>2005-06-16T17:00:21Z</time></trkpt>
<trkpt lat="46.49355000" lon="6.13330000"><ele>1475</ele><time>2005-06-16T17:00:27Z</time></trkpt>
<trkpt lat="46.49093330" lon="6.13315000"><ele>1483</ele><time>2005-06-16T17:02:01Z</time></trkpt>
<trkpt lat="46.49051670" lon="6.13290000"><ele>1485</ele><time>2005-06-16T17:12:00Z</time></trkpt>
<trkpt lat="46.49028330" lon="6.13260000"><ele>1484</ele><time>2005-06-16T17:12:04Z</time></trkpt>
<trkpt lat="46.48888330" lon="6.13251670"><ele>1478</ele><time>2005-06-16T17:12:23Z</time></trkpt>
<trkpt lat="46.48816670" lon="6.13158330"><ele>1472</ele><time>2005-06-16T17:12:36Z</time></trkpt>
<trkpt lat="46.48790000" lon="6.12998330"><ele>1469</ele><time>2005-06-16T17:12:52Z</time></trkpt>
<trkpt lat="46.48746670" lon="6.12901670"><ele>1469</ele><time>2005-06-16T17:13:03Z</time></trkpt>
<trkpt lat="46.48725000" lon="6.12883330"><ele>1470</ele><time>2005-06-16T17:13:07Z</time></trkpt>
<trkpt lat="46.48693330" lon="6.12926670"><ele>1469</ele><time>2005-06-16T17:13:14Z</time></trkpt>
<trkpt lat="46.48725000" lon="6.13151670"><ele>1465</ele><time>2005-06-16T17:13:36Z</time></trkpt>
<trkpt lat="46.48850000" lon="6.13405000"><ele>1453</ele><time>2005-06-16T17:14:00Z</time></trkpt>
<trkpt lat="46.48821670" lon="6.13448330"><ele>1450</ele><time>2005-06-16T17:14:07Z</time></trkpt>
<trkpt lat="46.48716670" lon="6.13530000"><ele>1445</ele><time>2005-06-16T17:14:28Z</time></trkpt>
<trkpt lat="46.48706670" lon="6.13561670"><ele>1443</ele><time>2005-06-16T17:14:34Z</time></trkpt>
<trkpt lat="46.48716670" lon="6.13663330"><ele>1439</ele><time>2005-06-16T17:14:46Z</time></trkpt>
<trkpt lat="46.48706670" lon="6.13670000"><ele>1438</ele><time>2005-06-16T17:14:48Z</time></trkpt>
<trkpt lat="46.48676670" lon="6.13670000"><ele>1437</ele><time>2005-06-16T17:14:54Z</time></trkpt>
<trkpt lat="46.48488330" lon="6.13543330"><ele>1419</ele><time>2005-06-16T17:15:24Z</time></trkpt>
<trkpt lat="46.48305000" lon="6.13590000"><ele>1387</ele><time>2005-06-16T17:17:14Z</time></trkpt>
<trkpt lat="46.48290000" lon="6.13621670"><ele>1386</ele><time>2005-06-16T17:17:19Z</time></trkpt>
<trkpt lat="46.48381670" lon="6.13828330"><ele>1368</ele><time>2005-06-16T17:17:42Z</time></trkpt>
<trkpt lat="46.48365000" lon="6.13923330"><ele>1363</ele><time>2005-06-16T17:17:53Z</time></trkpt>
<trkpt lat="46.48313330" lon="6.13991670"><ele>1354</ele><time>2005-06-16T17:18:06Z</time></trkpt>
<trkpt lat="46.48325000" lon="6.14106670"><ele>1347</ele><time>2005-06-16T17:18:24Z</time></trkpt>
<trkpt lat="46.48373330" lon="6.14271670"><ele>1332</ele><time>2005-06-16T17:18:45Z</time></trkpt>
<trkpt lat="46.48355000" lon="6.14335000"><ele>1326</ele><time>2005-06-16T17:18:53Z</time></trkpt>
<trkpt lat="46.48320000" lon="6.14286670"><ele>1324</ele><time>2005-06-16T17:19:06Z</time></trkpt>
<trkpt lat="46.48160000" lon="6.14178330"><ele>1322</ele><time>2005-06-16T17:19:47Z</time></trkpt>
<trkpt lat="46.48133330" lon="6.14178330"><ele>1322</ele><time>2005-06-16T17:19:52Z</time></trkpt>
<trkpt lat="46.48075000" lon="6.14245000"><ele>1322</ele><time>2005-06-16T17:20:07Z</time></trkpt>
<trkpt lat="46.48043330" lon="6.14253330"><ele>1321</ele><time>2005-06-16T17:20:17Z</time></trkpt>
<trkpt lat="46.47958330" lon="6.14210000"><ele>1322</ele><time>2005-06-16T17:20:56Z</time></trkpt>
<trkpt lat="46.47901670" lon="6.14225000"><ele>1322</ele><time>2005-06-16T17:21:20Z</time></trkpt>
<trkpt lat="46.47873330" lon="6.14211670"><ele>1321</ele><time>2005-06-16T17:21:38Z</time></trkpt>
<trkpt lat="46.47840000" lon="6.14173330"><ele>1325</ele><time>2005-06-16T17:22:08Z</time></trkpt>
<trkpt lat="46.47773330" lon="6.14021670"><ele>1332</ele><time>2005-06-16T17:23:13Z</time></trkpt>
<trkpt lat="46.47728330" lon="6.13998330"><ele>1332</ele><time>2005-06-16T17:23:34Z</time></trkpt>
<trkpt lat="46.47668330" lon="6.13933330"><ele>1335</ele><time>2005-06-16T17:24:08Z</time></trkpt>
<trkpt lat="46.47618330" lon="6.13756670"><ele>1345</ele><time>2005-06-16T17:25:47Z</time></trkpt>
<trkpt lat="46.47625000" lon="6.13581670"><ele>1357</ele><time>2005-06-16T17:27:55Z</time></trkpt>
<trkpt lat="46.47571670" lon="6.13528330"><ele>1361</ele><time>2005-06-16T17:28:37Z</time></trkpt>
<trkpt lat="46.47413330" lon="6.13266670"><ele>1391</ele><time>2005-06-16T17:31:22Z</time></trkpt>
<trkpt lat="46.47305000" lon="6.13185000"><ele>1386</ele><time>2005-06-16T17:32:28Z</time></trkpt>
<trkpt lat="46.47190000" lon="6.13136670"><ele>1385</ele><time>2005-06-16T17:33:20Z</time></trkpt>
<trkpt lat="46.47133330" lon="6.13068330"><ele>1386</ele><time>2005-06-16T17:33:55Z</time></trkpt>
<trkpt lat="46.47108330" lon="6.13053330"><ele>1387</ele><time>2005-06-16T17:34:12Z</time></trkpt>
<trkpt lat="46.47003330" lon="6.13008330"><ele>1386</ele><time>2005-06-16T17:34:52Z</time></trkpt>
<trkpt lat="46.46900000" lon="6.12998330"><ele>1384</ele><time>2005-06-16T17:35:26Z</time></trkpt>
<trkpt lat="46.46846670" lon="6.13031670"><ele>1382</ele><time>2005-06-16T17:35:44Z</time></trkpt>
<trkpt lat="46.46811670" lon="6.13121670"><ele>1378</ele><time>2005-06-16T17:36:08Z</time></trkpt>
<trkpt lat="46.46823330" lon="6.13161670"><ele>1374</ele><time>2005-06-16T17:37:16Z</time></trkpt>
<trkpt lat="46.46745000" lon="6.13176670"><ele>1361</ele><time>2005-06-16T17:38:43Z</time></trkpt>
<trkpt lat="46.46691670" lon="6.13223330"><ele>1351</ele><time>2005-06-16T17:39:05Z</time></trkpt>
<trkpt lat="46.46593330" lon="6.12805000"><ele>1347</ele><time>2005-06-16T17:40:13Z</time></trkpt>
<trkpt lat="46.46586670" lon="6.12575000"><ele>1345</ele><time>2005-06-16T17:40:47Z</time></trkpt>
<trkpt lat="46.46611670" lon="6.12390000"><ele>1343</ele><time>2005-06-16T17:41:09Z</time></trkpt>
<trkpt lat="46.46548330" lon="6.12336670"><ele>1342</ele><time>2005-06-16T17:41:19Z</time></trkpt>
<trkpt lat="46.46503330" lon="6.12260000"><ele>1341</ele><time>2005-06-16T17:41:28Z</time></trkpt>
<trkpt lat="46.46476670" lon="6.12180000"><ele>1340</ele><time>2005-06-16T17:41:35Z</time></trkpt>
<trkpt lat="46.46458330" lon="6.11678330"><ele>1329</ele><time>2005-06-16T17:42:17Z</time></trkpt>
<trkpt lat="46.46321670" lon="6.11491670"><ele>1304</ele><time>2005-06-16T17:42:36Z</time></trkpt>
<trkpt lat="46.46250000" lon="6.11370000"><ele>1291</ele><time>2005-06-16T17:42:45Z</time></trkpt>
<trkpt lat="46.46141670" lon="6.11333330"><ele>1285</ele><time>2005-06-16T17:42:55Z</time></trkpt>
<trkpt lat="46.45898330" lon="6.11188330"><ele>1266</ele><time>2005-06-16T17:43:21Z</time></trkpt>
<trkpt lat="46.45818330" lon="6.11113330"><ele>1258</ele><time>2005-06-16T17:43:31Z</time></trkpt>
<trkpt lat="46.45748330" lon="6.11016670"><ele>1249</ele><time>2005-06-16T17:43:40Z</time></trkpt>
<trkpt lat="46.45621670" lon="6.10965000"><ele>1234</ele><time>2005-06-16T17:43:51Z</time></trkpt>
<trkpt lat="46.45558330" lon="6.10986670"><ele>1228</ele><time>2005-06-16T17:43:57Z</time></trkpt>
<trkpt lat="46.45505000" lon="6.11035000"><ele>1223</ele><time>2005-06-16T17:44:03Z</time></trkpt>
<trkpt lat="46.45451670" lon="6.11231670"><ele>1212</ele><time>2005-06-16T17:44:20Z</time></trkpt>
<trkpt lat="46.45435000" lon="6.11208330"><ele>1211</ele><time>2005-06-16T17:44:32Z</time></trkpt>
</trkseg></trk></gpx>